createdAt,value
2023-01-17T00:05:17.617Z,8.40
2023-01-17T00:10:22.732Z,8.40
2023-01-17T00:15:26.409Z,8.30
2023-01-17T00:20:50.768Z,8.50
2023-01-17T00:26:09.541Z,8.50
2023-01-17T00:47:03.670Z,9.10
2023-01-17T00:52:25.838Z,9.30
2023-01-17T00:57:48.014Z,9.30
2023-01-17T01:03:10.126Z,9.40
2023-01-17T01:08:49.943Z,9.50
2023-01-17T01:14:12.232Z,9.50
2023-01-17T01:19:34.433Z,9.60
2023-01-17T01:24:56.551Z,9.60
2023-01-17T01:30:18.797Z,9.60
2023-01-17T01:35:22.621Z,9.50
2023-01-17T01:40:24.915Z,9.50
2023-01-17T01:45:29.819Z,9.50
2023-01-17T01:50:35.196Z,9.50
2023-01-17T01:55:40.952Z,9.50
2023-01-17T02:00:43.245Z,9.40
2023-01-17T02:05:46.090Z,9.40
2023-01-17T02:11:48.051Z,9.40
2023-01-17T02:28:16.375Z,10.00
2023-01-17T02:33:29.286Z,10.10
2023-01-17T02:43:45.330Z,10.20
2023-01-17T02:48:48.223Z,10.30
2023-01-17T03:04:38.617Z,10.20
2023-01-17T03:09:43.624Z,10.20
2023-01-17T03:14:45.911Z,10.20
2023-01-17T03:19:48.156Z,10.30
2023-01-17T03:24:50.836Z,10.20
2023-01-17T03:29:53.068Z,10.20
2023-01-17T03:34:55.753Z,10.20
2023-01-17T03:39:57.979Z,10.10
2023-01-17T03:45:00.254Z,10.20
2023-01-17T03:50:03.136Z,10.20
2023-01-17T03:55:06.383Z,10.10
2023-01-17T04:00:09.748Z,10.10
2023-01-17T04:05:12.140Z,10.00
2023-01-17T04:10:14.492Z,10.20
2023-01-17T04:15:16.784Z,10.20
2023-01-17T04:25:40.466Z,10.30
2023-01-17T04:30:42.691Z,10.30
2023-01-17T04:35:44.937Z,10.30
2023-01-17T04:40:47.291Z,10.40
2023-01-17T04:45:55.474Z,10.30
2023-01-17T04:51:01.919Z,10.30
2023-01-17T04:56:05.003Z,10.30
2023-01-17T05:01:08.635Z,10.40
2023-01-17T05:06:11.269Z,10.50
2023-01-17T05:11:13.502Z,10.70
2023-01-17T05:16:19.268Z,10.80
2023-01-17T05:21:22.347Z,10.80
2023-01-17T05:26:24.766Z,10.80
2023-01-17T05:31:27.119Z,10.80
2023-01-17T05:36:29.552Z,10.80
2023-01-17T05:41:31.776Z,10.80
2023-01-17T05:46:34.063Z,10.50
2023-01-17T05:51:37.960Z,10.60
2023-01-17T05:56:40.828Z,10.60
2023-01-17T06:01:42.996Z,10.80
2023-01-17T06:06:45.553Z,10.80
2023-01-17T06:11:47.973Z,11.00
2023-01-17T06:16:50.197Z,11.10
2023-01-17T06:21:52.543Z,11.20
2023-01-17T06:26:54.843Z,11.30
2023-01-17T06:31:57.068Z,10.80
2023-01-17T06:36:59.454Z,11.10
2023-01-17T06:42:02.005Z,10.90
2023-01-17T06:47:04.299Z,10.90
2023-01-17T06:52:06.532Z,10.90
2023-01-17T06:57:08.825Z,11.00
2023-01-17T07:02:11.943Z,11.00
2023-01-17T07:07:14.364Z,10.90
2023-01-17T07:12:16.703Z,10.90
2023-01-17T07:17:18.931Z,10.90
2023-01-17T07:22:21.243Z,11.00
2023-01-17T07:27:23.655Z,11.00
2023-01-17T07:32:27.062Z,11.00
2023-01-17T07:37:29.283Z,11.00
2023-01-17T07:42:31.532Z,10.90
2023-01-17T07:47:34.165Z,10.90
2023-01-17T07:52:36.520Z,10.60
2023-01-17T07:57:38.829Z,10.80
2023-01-17T08:02:41.032Z,11.00
2023-01-17T08:07:43.226Z,11.10
2023-01-17T08:12:46.920Z,10.90
2023-01-17T08:17:53.237Z,11.00
2023-01-17T08:22:56.741Z,11.00
2023-01-17T08:27:59.496Z,11.20
2023-01-17T08:33:01.789Z,11.20
2023-01-17T08:38:05.026Z,11.20
2023-01-17T08:43:07.253Z,11.50
2023-01-17T08:48:09.635Z,11.60
2023-01-17T08:53:11.915Z,12.00
2023-01-17T08:58:14.457Z,12.40
2023-01-17T09:03:17.302Z,13.40
2023-01-17T09:08:19.574Z,14.70
2023-01-17T09:13:21.874Z,15.00
2023-01-17T09:18:26.839Z,14.90
2023-01-17T09:23:30.544Z,14.40
2023-01-17T09:28:40.965Z,13.70
2023-01-17T09:33:43.415Z,13.30
2023-01-17T09:38:46.152Z,12.90
2023-01-17T09:43:54.269Z,12.60
2023-01-17T09:49:08.493Z,12.10
2023-01-17T09:54:22.254Z,12.00
2023-01-17T10:31:01.076Z,12.00
2023-01-17T10:36:08.612Z,11.80
2023-01-17T10:46:36.476Z,11.20
2023-01-17T10:56:56.409Z,11.30
2023-01-17T11:02:00.669Z,11.20
2023-01-17T11:07:15.878Z,11.20
2023-01-17T11:17:32.851Z,11.10
2023-01-17T11:22:35.588Z,11.30
2023-01-17T11:27:41.084Z,11.20
2023-01-17T11:33:01.512Z,11.50
2023-01-17T11:43:21.430Z,11.80
2023-01-17T11:48:24.282Z,12.00
2023-01-17T11:53:40.039Z,12.20
2023-01-17T11:58:43.171Z,12.10
2023-01-17T12:14:26.065Z,12.10
2023-01-17T12:20:01.125Z,12.30
2023-01-17T12:30:53.277Z,12.60
2023-01-17T12:36:17.705Z,12.80
2023-01-17T12:46:39.155Z,13.10
2023-01-17T12:51:45.232Z,13.40
2023-01-17T12:56:56.670Z,13.80
2023-01-17T13:02:02.437Z,14.10
2023-01-17T13:07:30.896Z,14.30
2023-01-17T13:12:37.212Z,14.50
2023-01-17T13:17:48.698Z,14.80
2023-01-17T13:22:51.912Z,14.80
2023-01-17T13:33:38.052Z,15.10
2023-01-17T13:44:21.042Z,14.90
2023-01-17T14:00:00.286Z,14.90
2023-01-17T14:05:09.550Z,15.50
2023-01-17T14:10:41.008Z,15.50
2023-01-17T14:15:52.242Z,15.50
2023-01-17T14:21:10.658Z,15.60
2023-01-17T14:26:20.969Z,15.50
2023-01-17T14:31:24.401Z,15.40
2023-01-17T14:36:32.430Z,15.50
2023-01-17T14:41:34.740Z,15.50
2023-01-17T14:46:37.013Z,15.40
2023-01-17T14:51:39.320Z,15.40
2023-01-17T14:56:41.591Z,15.30
2023-01-17T15:02:06.215Z,15.10
2023-01-17T15:07:16.753Z,14.90
2023-01-17T15:12:19.697Z,14.70
2023-01-17T15:17:25.831Z,14.70
2023-01-17T15:22:29.897Z,14.70
2023-01-17T15:27:32.793Z,14.70
2023-01-17T15:32:35.105Z,14.50
2023-01-17T15:37:40.079Z,14.20
2023-01-17T15:42:44.688Z,13.90
2023-01-17T15:47:48.061Z,13.70
2023-01-17T15:52:51.939Z,13.60
2023-01-17T15:57:54.493Z,13.30
2023-01-17T16:02:58.777Z,13.10
2023-01-17T16:13:13.709Z,13.20
2023-01-17T16:18:20.824Z,13.20
2023-01-17T16:23:23.003Z,13.20
2023-01-17T16:28:25.256Z,13.30
2023-01-17T16:33:27.536Z,13.30
2023-01-17T16:38:30.507Z,12.90
2023-01-17T16:43:32.796Z,12.60
2023-01-17T16:48:37.660Z,12.40
2023-01-17T16:53:39.956Z,12.30
2023-01-17T16:58:42.308Z,12.20
2023-01-17T17:03:45.277Z,11.90
2023-01-17T17:08:47.739Z,11.80
2023-01-17T17:13:51.440Z,11.90
2023-01-17T17:18:57.806Z,11.70
2023-01-17T17:24:01.362Z,11.90
2023-01-17T17:29:04.985Z,12.00
2023-01-17T17:34:08.113Z,12.30
2023-01-17T17:39:14.933Z,12.50
2023-01-17T17:44:17.807Z,12.60
2023-01-17T17:49:22.268Z,12.60
2023-01-17T17:54:24.823Z,12.60
2023-01-17T17:59:27.394Z,12.50
2023-01-17T18:04:29.879Z,12.40
2023-01-17T18:09:32.129Z,12.30
2023-01-17T18:14:34.447Z,12.40
2023-01-17T18:19:36.720Z,12.00
2023-01-17T18:24:38.963Z,11.60
2023-01-17T18:29:41.203Z,11.80
2023-01-17T18:34:43.444Z,12.00
2023-01-17T18:39:45.681Z,12.10
2023-01-17T18:44:48.376Z,12.40
2023-01-17T18:49:53.786Z,12.30
2023-01-17T18:54:56.169Z,12.30
2023-01-17T18:59:58.424Z,12.00
2023-01-17T19:05:01.866Z,12.10
2023-01-17T19:10:04.350Z,12.10
2023-01-17T19:15:07.211Z,12.00
2023-01-17T19:20:10.161Z,12.10
2023-01-17T19:25:12.461Z,12.20
2023-01-17T19:30:14.885Z,12.20
2023-01-17T19:35:18.202Z,12.20
2023-01-17T19:40:20.878Z,12.10
2023-01-17T19:45:23.198Z,12.30
2023-01-17T19:50:25.429Z,12.40
2023-01-17T19:55:27.647Z,12.50
2023-01-17T20:00:30.456Z,12.60
2023-01-17T20:05:34.294Z,12.60
2023-01-17T20:10:36.462Z,12.60
2023-01-17T20:15:38.658Z,12.60
2023-01-17T20:20:56.263Z,12.40
2023-01-17T20:25:59.448Z,11.90
2023-01-17T20:31:07.751Z,11.80
2023-01-17T20:36:12.739Z,11.80
2023-01-17T20:41:20.659Z,11.80
2023-01-17T20:46:26.746Z,11.80
2023-01-17T20:51:30.431Z,11.60
2023-01-17T20:56:34.836Z,11.40
2023-01-17T21:01:38.281Z,11.30
2023-01-17T21:06:42.102Z,11.20
2023-01-17T21:11:44.442Z,11.40
2023-01-17T21:16:46.852Z,11.50
2023-01-17T21:21:50.173Z,11.50
2023-01-17T21:26:52.568Z,11.60
2023-01-17T21:31:56.058Z,11.60
2023-01-17T21:36:58.248Z,11.60
2023-01-17T21:42:00.470Z,11.70
2023-01-17T21:47:03.321Z,11.80
2023-01-17T21:57:38.783Z,11.90
2023-01-17T22:02:41.403Z,12.00
2023-01-17T22:08:03.694Z,12.00
2023-01-17T22:14:05.535Z,12.00
2023-01-17T22:20:47.094Z,12.00
2023-01-17T22:26:31.526Z,12.00
2023-01-17T22:31:34.169Z,12.00
2023-01-17T22:36:36.541Z,12.00
2023-01-17T22:41:38.923Z,12.00
2023-01-17T22:46:41.560Z,12.10
2023-01-17T22:51:44.972Z,12.20
2023-01-17T22:56:47.342Z,12.30
2023-01-17T23:01:49.562Z,12.50
2023-01-17T23:06:51.845Z,12.60
2023-01-17T23:11:55.293Z,12.40
2023-01-17T23:17:20.453Z,12.20
2023-01-17T23:22:27.008Z,12.20
2023-01-17T23:32:54.159Z,12.30
2023-01-17T23:38:16.903Z,12.20
2023-01-17T23:43:26.619Z,12.00
2023-01-17T23:48:29.064Z,12.00
2023-01-17T23:53:31.329Z,12.00
2023-01-17T23:58:34.099Z,12.20
